Portada
METAR-TAF:

METAR-TAF

Aeropuertos :

Yap, Yap Island, Micronesia

Aeropuerto Internacional de Yap

latitud: 09-29N, longitud: 138-05E, altitud: 28 m

Observación

El informe se hizo hace 24 minutos, a las 14:50 UTC
Viento 3 kt con dirección variable
Temperatura 28°C
Humedad 89%
Presión 1008 hPa
Visibilidad: 19.3 km
Escasas nubes a una altura de 1600 ft
Nubes dispersas a una altura de 13000 ft
Cielo nuboso a una altura de 30000 ft

METAR: PTYA 111450Z VRB03KT 12SM FEW016 SCT130 BKN300 28/26 A2978 RMK SLP084 8/177 T02780255 403000254 58005

Hora: 01:14 (15:14 UTC)

Pronóstico

El informe se hizo hace 3 horas y 54 minutos, a las 11:20 UTC
Pronóstico válido del 11 a las 12 UTC al 12 a las 12 UTC
Viento 10 kt del este-sureste
Visibilidad: 10 km
Escasas nubes a una altura de 1600 ft
Nubes dispersas a una altura de 13000 ft
chaparrones en las proximidades

TAF: PTYA 111120Z 1112/1212 11010KT P6SM VCSH FEW016 SCT130

Observaciones y pronósticos meteorológicos de más de 4000 aeropuertos (mensajes METAR y TAF).

Los puntos amarillos y rojos representan las estaciones disponibles.

Ponga el ratón en el punto deseado para ver el nombre de la estación.

Haga clic para ver las observaciones y los pronósticos meteorológicos.

Para cambiar el mapa : haga clic en los botones verdes con una cruz de color negro para hacer un zoom, en el botón verde con un guión para alejar o en las flechas verdes para mapas adyacentes.


METAR-TAF: